| time (UTC) | temp C | wind direction | speed KPH | gust KPH | rain 1hr cm | rain 24hr cm | rain mn cm | humidity % | barometer mb |
| 20260906111550 | -17 | 0.0 | 0.0 | 0.00 | 0.00 | 0.00 | 1013.6 | ||
| 20260906110034 | -17 | 0.0 | 0.0 | 0.00 | 0.00 | 0.00 | 1013.3 | ||
| 20260906104533 | -17 | 0.0 | 0.0 | 0.00 | 0.00 | 0.00 | 1013.4 | ||
| 20260906103026 | -17 | 0.0 | 0.0 | 0.00 | 0.00 | 0.00 | 1013.1 | ||
| 20260906101523 | -17 | 0.0 | 0.0 | 0.00 | 0.00 | 0.00 | 1013.0 | ||
| 20260906100024 | -17 | 0.0 | 0.0 | 0.00 | 0.00 | 0.00 | 1013.1 | ||
| 20260906094514 | -17 | 0.0 | 0.0 | 0.00 | 0.00 | 0.00 | 1012.9 | ||
| 20260906093010 | -17 | 0.0 | 0.0 | 0.00 | 0.00 | 0.00 | 1012.8 | ||
| 20260906091506 | -17 | 0.0 | 0.0 | 0.00 | 0.00 | 0.00 | 1012.6 | ||
| 20260906090004 | 21 | 160 | 4.8 | 11.3 | 0.00 | 0.00 | 0.00 | 94 | 1012.7 |
| 20260906084502 | 21 | 160 | 1.6 | 8.0 | 0.00 | 0.00 | 0.00 | 94 | 1012.6 |
| 20260906083100 | 21 | 160 | 3.2 | 9.7 | 0.00 | 0.00 | 0.00 | 94 | 1012.7 |
| 20260906081558 | 22 | 157 | 1.6 | 6.4 | 0.00 | 0.00 | 0.00 | 93 | 1012.7 |
| 20260906074555 | 22 | 156 | 1.6 | 9.7 | 0.00 | 0.00 | 0.00 | 92 | 1012.4 |
| 20260906073054 | 22 | 162 | 3.2 | 8.0 | 0.00 | 0.00 | 0.00 | 91 | 1012.5 |
| 20260906071552 | 23 | 156 | 3.2 | 8.0 | 0.00 | 0.00 | 0.00 | 90 | 1012.4 |
| 20260906070051 | 23 | 162 | 6.4 | 14.5 | 0.00 | 0.00 | 0.00 | 89 | 1012.4 |
| 20260906064550 | 23 | 158 | 1.6 | 6.4 | 0.00 | 0.00 | 0.00 | 88 | 1012.3 |
| 20260906063042 | 23 | 160 | 1.6 | 6.4 | 0.00 | 0.00 | 0.00 | 88 | 1012.5 |
| 20260906061540 | 24 | 158 | 3.2 | 8.0 | 0.00 | 0.00 | 0.00 | 88 | 1012.6 |
| 20260906060038 | 24 | 162 | 0.0 | 4.8 | 0.00 | 0.00 | 0.00 | 85 | 1012.7 |
| 20260906054552 | 25 | 162 | 4.8 | 9.7 | 0.00 | 0.00 | 0.00 | 85 | 1012.7 |
| 20260906053035 | 25 | 163 | 1.6 | 6.4 | 0.00 | 0.00 | 0.00 | 84 | 1012.7 |
| 20260906051535 | 25 | 161 | 3.2 | 8.0 | 0.00 | 0.00 | 0.00 | 83 | 1012.7 |
| 20260906050028 | 25 | 160 | 0.0 | 8.0 | 0.00 | 0.00 | 0.00 | 81 | 1012.5 |
| 20260906044527 | 26 | 158 | 4.8 | 14.5 | 0.00 | 0.00 | 0.00 | 80 | 1012.5 |
| 20260906043027 | 26 | 159 | 3.2 | 9.7 | 0.00 | 0.00 | 0.00 | 81 | 1012.3 |
| 20260906041528 | 27 | 160 | 4.8 | 11.3 | 0.00 | 0.00 | 0.00 | 80 | 1012.3 |
| 20260906040046 | 27 | 160 | 4.8 | 17.7 | 0.00 | 0.00 | 0.00 | 79 | 1012.0 |
| 20260906034525 | 27 | 160 | 8.0 | 16.1 | 0.00 | 0.00 | 0.00 | 81 | 1011.9 |
| 20260906033039 | 27 | 162 | 8.0 | 20.9 | 0.00 | 0.00 | 0.00 | 81 | 1011.7 |
| 20260906031524 | 28 | 157 | 8.0 | 22.5 | 0.00 | 0.00 | 0.00 | 79 | 1011.5 |
| 20260906030023 | 28 | 158 | 6.4 | 17.7 | 0.00 | 0.00 | 0.00 | 78 | 1011.2 |
| 20260906024522 | 28 | 158 | 3.2 | 9.7 | 0.00 | 0.00 | 0.00 | 76 | 1011.0 |
| 20260906023023 | 29 | 157 | 3.2 | 12.9 | 0.00 | 0.00 | 0.00 | 74 | 1010.9 |
| 20260906021523 | 29 | 160 | 6.4 | 14.5 | 0.00 | 0.00 | 0.00 | 74 | 1010.8 |
| 20260906020022 | 29 | 159 | 4.8 | 9.7 | 0.00 | 0.00 | 0.00 | 73 | 1010.7 |
| 20260906014526 | 29 | 159 | 8.0 | 11.3 | 0.00 | 0.00 | 0.00 | 71 | 1010.7 |
| 20260906013020 | 30 | 160 | 1.6 | 8.0 | 0.00 | 0.00 | 0.00 | 71 | 1010.5 |
| 20260906011519 | 30 | 160 | 0.0 | 0.0 | 0.00 | 0.00 | 0.00 | 70 | 1010.2 |
| 20260906010020 | 30 | 160 | 0.0 | 4.8 | 0.00 | 0.00 | 0.00 | 68 | 1010.1 |
| 20260906004519 | 31 | 160 | 0.0 | 6.4 | 0.00 | 0.00 | 0.00 | 66 | 1010.1 |
| 20260906003018 | 31 | 157 | 3.2 | 9.7 | 0.00 | 0.00 | 0.00 | 65 | 1010.0 |
| 20260906001517 | 31 | 155 | 0.0 | 6.4 | 0.00 | 0.00 | 0.00 | 63 | 1010.1 |
| 20260906000017 | 32 | 160 | 4.8 | 9.7 | 0.00 | 0.00 | 0.00 | 60 | 1010.1 |
| 20260905234518 | 32 | 155 | 3.2 | 9.7 | 0.00 | 0.00 | 0.00 | 58 | 1010.1 |
| 20260905233015 | 33 | 158 | 4.8 | 12.9 | 0.00 | 0.00 | 0.00 | 55 | 1009.9 |
| 20260905231519 | 33 | 158 | 4.8 | 12.9 | 0.00 | 0.00 | 0.00 | 53 | 1009.8 |
| 20260905230014 | 34 | 157 | 8.0 | 17.7 | 0.00 | 0.00 | 0.00 | 51 | 1009.8 |
| 20260905224527 | 35 | 155 | 16.1 | 24.1 | 0.00 | 0.00 | 0.00 | 49 | 1009.7 |
| 20260905223015 | 35 | 155 | 8.0 | 16.1 | 0.00 | 0.00 | 0.00 | 48 | 1009.7 |
| 20260905221511 | 36 | 158 | 14.5 | 20.9 | 0.00 | 0.00 | 0.00 | 47 | 1009.7 |
| 20260905220011 | 36 | 155 | 9.7 | 19.3 | 0.00 | 0.00 | 0.00 | 46 | 1009.6 |
| 20260905214511 | 36 | 155 | 9.7 | 16.1 | 0.00 | 0.00 | 0.00 | 44 | 1009.6 |
| 20260905213009 | 35 | 151 | 11.3 | 22.5 | 0.00 | 0.00 | 0.00 | 43 | 1009.7 |
| 20260905211523 | 35 | 150 | 11.3 | 17.7 | 0.00 | 0.00 | 0.00 | 40 | 1009.8 |
| 20260905210007 | 34 | 153 | 14.5 | 22.5 | 0.00 | 0.00 | 0.00 | 42 | 1010.0 |
| 20260905204504 | 33 | 153 | 14.5 | 25.7 | 0.00 | 0.00 | 0.00 | 47 | 1010.3 |
| 20260905203002 | 32 | 155 | 14.5 | 24.1 | 0.00 | 0.00 | 0.00 | 55 | 1010.6 |
| 20260905201601 | 32 | 156 | 19.3 | 29.0 | 0.00 | 0.00 | 0.00 | 58 | 1010.5 |
| 20260905200104 | 35 | 158 | 32.2 | 41.8 | 0.00 | 0.00 | 0.00 | 48 | 1010.5 |
| 20260905194559 | 36 | 155 | 12.9 | 24.1 | 0.00 | 0.00 | 0.00 | 45 | 1010.4 |
| 20260905193058 | 36 | 153 | 14.5 | 22.5 | 0.00 | 0.00 | 0.00 | 44 | 1010.5 |
| 20260905191605 | 37 | 152 | 8.0 | 19.3 | 0.00 | 0.00 | 0.00 | 42 | 1010.5 |
| 20260905190054 | 37 | 147 | 8.0 | 19.3 | 0.00 | 0.00 | 0.00 | 43 | 1010.5 |
| 20260905184557 | 37 | 152 | 9.7 | 24.1 | 0.00 | 0.00 | 0.00 | 42 | 1010.9 |
| 20260905183048 | 36 | 155 | 6.4 | 17.7 | 0.00 | 0.00 | 0.00 | 43 | 1011.0 |
| 20260905181547 | 36 | 151 | 11.3 | 22.5 | 0.00 | 0.00 | 0.00 | 44 | 1011.2 |
| 20260905180058 | 36 | 155 | 11.3 | 19.3 | 0.00 | 0.00 | 0.00 | 44 | 1011.2 |
| 20260905174542 | 36 | 153 | 9.7 | 16.1 | 0.00 | 0.00 | 0.00 | 42 | 1011.4 |
| 20260905173100 | 37 | 150 | 8.0 | 17.7 | 0.00 | 0.00 | 0.00 | 42 | 1011.4 |
| 20260905171636 | 36 | 151 | 4.8 | 17.7 | 0.00 | 0.00 | 0.00 | 42 | 1011.7 |
| 20260905170035 | 36 | 147 | 6.4 | 14.5 | 0.00 | 0.00 | 0.00 | 44 | 1011.9 |
| 20260905164534 | 36 | 150 | 9.7 | 19.3 | 0.00 | 0.00 | 0.00 | 44 | 1012.1 |
| 20260905163030 | 36 | 155 | 3.2 | 14.5 | 0.00 | 0.00 | 0.00 | 46 | 1012.2 |
| 20260905161627 | 36 | 153 | 4.8 | 16.1 | 0.00 | 0.00 | 0.00 | 46 | 1012.2 |
| 20260905160026 | 35 | 149 | 4.8 | 12.9 | 0.00 | 0.00 | 0.00 | 47 | 1012.4 |
| 20260905154523 | 35 | 154 | 1.6 | 9.7 | 0.00 | 0.00 | 0.00 | 48 | 1012.5 |
| 20260905153021 | 35 | 154 | 1.6 | 11.3 | 0.00 | 0.00 | 0.00 | 49 | 1012.7 |
| 20260905151520 | 34 | 148 | 4.8 | 11.3 | 0.00 | 0.00 | 0.00 | 52 | 1012.5 |
| 20260905150012 | 33 | 151 | 3.2 | 12.9 | 0.00 | 0.00 | 0.00 | 53 | 1012.5 |
| 20260905144521 | 33 | 153 | 4.8 | 11.3 | 0.00 | 0.00 | 0.00 | 55 | 1012.5 |
| 20260905143007 | 32 | 156 | 4.8 | 8.0 | 0.00 | 0.00 | 0.00 | 59 | 1012.6 |
| 20260905141505 | 32 | 155 | 1.6 | 6.4 | 0.00 | 0.00 | 0.00 | 60 | 1012.7 |
| 20260905140100 | 31 | 156 | 0.0 | 8.0 | 0.00 | 0.00 | 0.00 | 63 | 1012.9 |
| 20260905134557 | 30 | 152 | 0.0 | 1.6 | 0.00 | 0.00 | 0.00 | 66 | 1012.9 |
| 20260905133058 | 30 | 155 | 0.0 | 1.6 | 0.00 | 0.00 | 0.00 | 69 | 1012.9 |
| 20260905131550 | 29 | 153 | 0.0 | 1.6 | 0.00 | 0.00 | 0.00 | 73 | 1013.0 |
| 20260905130045 | 27 | 159 | 0.0 | 0.0 | 0.00 | 0.00 | 0.00 | 79 | 1013.0 |
| 20260905124542 | 26 | 158 | 0.0 | 0.0 | 0.00 | 0.00 | 0.00 | 84 | 1013.0 |
| 20260905123048 | 26 | 159 | 0.0 | 1.6 | 0.00 | 0.00 | 0.00 | 83 | 1012.9 |
| 20260905121544 | 25 | 158 | 1.6 | 3.2 | 0.00 | 0.00 | 0.00 | 84 | 1012.9 |
| 20260905120034 | -17 | 0.0 | 0.0 | 0.00 | 0.00 | 0.00 | 1012.7 | ||
| 20260905114531 | -17 | 0.0 | 0.0 | 0.00 | 0.00 | 0.00 | 1012.6 | ||
| 20260905113026 | -17 | 0.0 | 0.0 | 0.00 | 0.00 | 0.00 | 1012.4 |